KGSO

Piedmont Triad International Airport

Greensboro, North Carolina, USA
METAR KGSO 250454Z 19006KT 10SM SCT250 21/19 A3015 RMK AO2 SLP200 T02110189 402830200
Observed Flight Rules
May-25 @ 04:54 UTC (36 minutes ago) Visual Flight Rules
Wind Visibility Clouds
190° at 6 knots 10 miles
  • Scattered at 25,000' AGL
Temperatures Readings
Current 21°C / 70°F
Dewpoint 19°C / 66°F
Humidity 88%
Altimeter 30.15" Hg
Pressure 1020 hPa
Elevation 275
METAR KGSO 250454Z 19006KT 10SM SCT250 21/19 A3015 RMK AO2 SLP200 T02110189 402830200
Observed Flight Rules
May-25 @ 04:54 UTC
(36 minutes ago)
VFR
Wind Visibility
190° at 6 knots 10 miles
Clouds
  • Scattered at 25,000' AGL
Temperature Dewpoint
21°C / 70°F 19°C / 66°F
Humidity Altimeter Pressure
88% 30.15" Hg 1020 hPa